1894 Hurricane NOT_NAMED (1894242N13325)


IBTrACS version v04r00. Visit IBTrACS website for data access.
Please direct all questions to the IBTrACS Q and A forum

Storm track - Intensity - Wind Radii - Intensity Data - Source Data - All data

Summary Information

Storm ID 1894242N13325
Start Aug 30 00Z
Max Intensity 100 kt (Sep 6 12Z), 948 mb (Sep 8 00Z)
End Sep 9 18Z
ATCF IDs AL031894
Track status Best track data.

Storm track plot

Map of storm track

Intensity plots

Map of storm track

Radial wind information

No radial wind information for this storm


Position and Intensity Table

BASIN ISO_TIME_________ NATURE LAT LON WMO WIND WMO PRES USA WIND USA PRES MLC WIND
degrees north degrees east kts mb kts mb kts
NA 1894-08-30 00:00:00 TS 13.20 -34.80 35 35 30
NA 03:00:00 TS 13.30 -35.36 35 30
NA 06:00:00 TS 13.40 -36.00 35 35 30
NA 09:00:00 TS 13.50 -36.75 37 30
NA 12:00:00 TS 13.60 -37.50 40 40 30
NA 15:00:00 TS 13.70 -38.12 40 30
NA 18:00:00 TS 13.80 -38.70 40 40 30
NA 21:00:00 TS 13.90 -39.30 42 30
NA 1894-08-31 00:00:00 TS 14.00 -39.90 45 45 30
NA 03:00:00 TS 14.10 -40.50 45 30
NA 06:00:00 TS 14.20 -41.10 45 45 30
NA 09:00:00 TS 14.29 -41.70 45 30
NA 12:00:00 TS 14.40 -42.30 45 45 30
NA 15:00:00 TS 14.55 -42.90 47 30
NA 18:00:00 TS 14.70 -43.50 50 50 30
NA 21:00:00 TS 14.80 -44.11 50 32
NA 1894-09-01 00:00:00 TS 14.90 -44.70 50 50 35
NA 03:00:00 TS 15.02 -45.25 52 35
NA 06:00:00 TS 15.20 -45.80 55 55 35
NA 09:00:00 TS 15.47 -46.39 55 35
NA 12:00:00 TS 15.80 -47.00 55 55 35
NA 15:00:00 TS 16.14 -47.59 57 35
NA 18:00:00 TS 16.50 -48.20 60 60 35
NA 21:00:00 TS 16.85 -48.84 62 37
NA 1894-09-02 00:00:00 TS 17.20 -49.50 65 65 40
NA 03:00:00 TS 17.55 -50.15 65 40
NA 06:00:00 TS 17.90 -50.80 65 65 40
NA 09:00:00 TS 18.25 -51.46 67 40
NA 12:00:00 TS 18.60 -52.10 70 70 40
NA 15:00:00 TS 18.95 -52.71 72 40
NA 18:00:00 TS 19.30 -53.30 75 75 40
NA 21:00:00 TS 19.65 -53.92 75 42
NA 1894-09-03 00:00:00 TS 20.00 -54.50 75 75 45
NA 03:00:00 TS 20.35 -55.02 77 45
NA 06:00:00 TS 20.70 -55.50 80 80 45
NA 09:00:00 TS 21.05 -55.97 80 45
NA 12:00:00 TS 21.40 -56.40 80 80 45
NA 15:00:00 TS 21.76 -56.78 82 45
NA 18:00:00 TS 22.10 -57.10 85 85 45
NA 21:00:00 TS 22.40 -57.37 85 47
NA 1894-09-04 00:00:00 TS 22.70 -57.60 85 85 50
NA 03:00:00 TS 23.05 -57.81 85 52
NA 06:00:00 TS 23.40 -58.00 85 85 55
NA 09:00:00 TS 23.69 -58.20 85 57
NA 12:00:00 TS 24.00 -58.40 85 85 60
NA 15:00:00 TS 24.38 -58.63 85 60
NA 18:00:00 TS 24.80 -58.87 85 85 60
NA 21:00:00 TS 25.20 -59.11 85 62
NA 1894-09-05 00:00:00 TS 25.60 -59.33 85 85 65
NA 03:00:00 TS 26.00 -59.54 85 67
NA 06:00:00 TS 26.40 -59.73 85 85 70
NA 09:00:00 TS 26.80 -59.93 85 72
NA 12:00:00 TS 27.20 -60.07 85 85 75
NA 15:00:00 TS 27.60 -60.11 85 77
NA 18:00:00 TS 28.00 -60.07 85 85 80
NA 21:00:00 TS 28.38 -59.94 87 82
NA 1894-09-06 00:00:00 TS 28.77 -59.77 90 90 85
NA 03:00:00 TS 29.18 -59.60 92 87
NA 06:00:00 TS 29.60 -59.40 95 95 90
NA 09:00:00 TS 29.99 -59.17 97 92
NA 12:00:00 TS 30.37 -58.87 100 100 95
NA 15:00:00 TS 30.75 -58.49 100 97
NA 18:00:00 TS 31.13 -58.07 100 100 100
NA 21:00:00 TS 31.53 -57.66 100 100
NA 1894-09-07 00:00:00 TS 31.93 -57.23 100 100 100
NA 03:00:00 TS 32.35 -56.75 100 100
NA 06:00:00 TS 32.77 -56.23 100 100 100
NA 09:00:00 TS 33.14 -55.76 100 100
NA 12:00:00 TS 33.57 -55.35 100 100 100
NA 15:00:00 TS 34.11 -54.87 100 100
NA 18:00:00 TS 34.72 -54.47 100 100 100
NA 21:00:00 TS 35.40 -54.20 100
NA 1894-09-08 00:00:00 TS 36.20 -53.40 100 948 100 948
NA 03:00:00 TS 37.06 -52.54 100
NA 06:00:00 TS 38.00 -51.60 100 100
NA 09:00:00 TS 38.96 -50.63 100
NA 12:00:00 TS 40.00 -49.60 100 100
NA 15:00:00 TS 41.10 -48.50 95
NA 18:00:00 TS 42.30 -47.30 90 90
NA 21:00:00 TS 43.60 -45.95 85
NA 1894-09-09 00:00:00 TS 45.00 -44.50 80 80
NA 03:00:00 TS 46.52 -42.49 77
NA 06:00:00 TS 48.18 -40.64 75 75 75
NA 09:00:00 TS 49.98 -38.84 72 72
NA 12:00:00 TS 51.70 -37.23 70 70 70
NA 15:00:00 TS 53.11 -35.97 70 70
NA 18:00:00 MX 54.37 -34.80 70 70 70

Source Information

Agency Information
USA hurdat2-1851-2018-051019.txt:Line=7956:UNNAMED
TOKYO
CMA
HKO
NEWDELHI
REUNION
BOM
NADI
WELLINGTON
DS824
TD9636
TD9635
NEUMANN
MLC

All available IBTrACS Data

SEASON BASIN SUBBASIN ISO_TIME_________ NATURE LAT LON WMO WIND WMO PRES WMO AGENCY DIST2LAND LANDFALL IFLAG USA AGENCY USA ATCF_ID USA LAT USA LON USA STATUS USA WIND USA PRES USA SSHS MLC LAT MLC LON MLC CLASS MLC WIND STORM SPEED STORM DIR
Year degrees north degrees east kts mb km km degrees north degrees east kts mb 1 degrees north degrees east kts kts degrees
1894 NA NA 1894-08-30 00:00:00 TS 13.20 -34.80 35 hurdat_atl 1874 1874 O____________O hurdat_atl AL031894 13.20 -34.80 TS 35 0 13.20 -34.80 TD 30 11 280
1894 NA NA 03:00:00 TS 13.30 -35.36 1878 1870 P____________P AL031894 13.30 -35.36 TS 35 0 13.30 -35.36 TD 30 12 280
1894 NA NA 06:00:00 TS 13.40 -36.00 35 hurdat_atl 1873 1866 O____________O hurdat_atl AL031894 13.40 -36.00 TS 35 0 13.40 -36.00 TD 30 14 278
1894 NA NA 09:00:00 TS 13.50 -36.75 1869 1838 P____________P AL031894 13.50 -36.75 TS 37 0 13.50 -36.75 TD 30 15 278
1894 NA NA 12:00:00 TS 13.60 -37.50 40 hurdat_atl 1838 1791 O____________O hurdat_atl AL031894 13.60 -37.50 TS 40 0 13.60 -37.50 TD 30 14 279
1894 NA NA 15:00:00 TS 13.70 -38.12 1791 1745 P____________P AL031894 13.70 -38.12 TS 40 0 13.70 -38.12 TD 30 12 280
1894 NA NA 18:00:00 TS 13.80 -38.70 40 hurdat_atl 1745 1700 O____________O hurdat_atl AL031894 13.80 -38.70 TS 40 0 13.80 -38.70 TD 30 12 280
1894 NA NA 21:00:00 TS 13.90 -39.30 1700 1656 P____________P AL031894 13.90 -39.30 TS 42 0 13.90 -39.30 TD 30 12 280
1894 NA NA 1894-08-31 00:00:00 TS 14.00 -39.90 45 hurdat_atl 1656 1615 O____________O hurdat_atl AL031894 14.00 -39.90 TS 45 0 14.00 -39.90 TD 30 12 280
1894 NA NA 03:00:00 TS 14.10 -40.50 1615 1575 P____________P AL031894 14.10 -40.50 TS 45 0 14.10 -40.50 TD 30 12 280
1894 NA NA 06:00:00 TS 14.20 -41.10 45 hurdat_atl 1575 1537 O____________O hurdat_atl AL031894 14.20 -41.10 TS 45 0 14.20 -41.10 TD 30 12 279
1894 NA NA 09:00:00 TS 14.29 -41.70 1537 1501 P____________P AL031894 14.29 -41.70 TS 45 0 14.29 -41.70 TD 30 12 280
1894 NA NA 12:00:00 TS 14.40 -42.30 45 hurdat_atl 1501 1467 O____________O hurdat_atl AL031894 14.40 -42.30 TS 45 0 14.40 -42.30 TD 30 12 282
1894 NA NA 15:00:00 TS 14.55 -42.90 1467 1444 P____________P AL031894 14.55 -42.90 TS 47 0 14.55 -42.90 TD 30 12 284
1894 NA NA 18:00:00 TS 14.70 -43.50 50 hurdat_atl 1444 1416 O____________O hurdat_atl AL031894 14.70 -43.50 TS 50 0 14.70 -43.50 TD 30 12 282
1894 NA NA 21:00:00 TS 14.80 -44.11 1416 1388 P____________P AL031894 14.80 -44.11 TS 50 0 14.80 -44.11 TD 32 12 280
1894 NA NA 1894-09-01 00:00:00 TS 14.90 -44.70 50 hurdat_atl 1388 1363 O____________O hurdat_atl AL031894 14.90 -44.70 TS 50 0 14.90 -44.70 TS 35 11 281
1894 NA NA 03:00:00 TS 15.02 -45.25 1357 1344 P____________P AL031894 15.02 -45.25 TS 52 0 15.02 -45.25 TS 35 11 286
1894 NA NA 06:00:00 TS 15.20 -45.80 55 hurdat_atl 1344 1333 O____________O hurdat_atl AL031894 15.20 -45.80 TS 55 0 15.20 -45.80 TS 35 12 292
1894 NA NA 09:00:00 TS 15.47 -46.39 1337 1330 P____________P AL031894 15.47 -46.39 TS 55 0 15.47 -46.39 TS 35 13 297
1894 NA NA 12:00:00 TS 15.80 -47.00 55 hurdat_atl 1335 1330 O____________O hurdat_atl AL031894 15.80 -47.00 TS 55 0 15.80 -47.00 TS 35 13 300
1894 NA NA 15:00:00 TS 16.14 -47.59 1336 1336 P____________P AL031894 16.14 -47.59 TS 57 0 16.14 -47.59 TS 35 14 301
1894 NA NA 18:00:00 TS 16.50 -48.20 60 hurdat_atl 1350 1346 O____________O hurdat_atl AL031894 16.50 -48.20 TS 60 0 16.50 -48.20 TS 35 14 301
1894 NA NA 21:00:00 TS 16.85 -48.84 1354 1354 P____________P AL031894 16.85 -48.84 TS 62 0 16.85 -48.84 TS 37 14 299
1894 NA NA 1894-09-02 00:00:00 TS 17.20 -49.50 65 hurdat_atl 1364 1360 O____________O hurdat_atl AL031894 17.20 -49.50 HU 65 1 17.20 -49.50 TS 40 14 299
1894 NA NA 03:00:00 TS 17.55 -50.15 1369 1362 P____________P AL031894 17.55 -50.15 HU 65 1 17.55 -50.15 TS 40 14 299
1894 NA NA 06:00:00 TS 17.90 -50.80 65 hurdat_atl 1362 1331 O____________O hurdat_atl AL031894 17.90 -50.80 HU 65 1 17.90 -50.80 TS 40 14 299
1894 NA NA 09:00:00 TS 18.25 -51.46 1323 1302 P____________P AL031894 18.25 -51.46 HU 67 1 18.25 -51.46 TS 40 14 300
1894 NA NA 12:00:00 TS 18.60 -52.10 70 hurdat_atl 1302 1279 O____________O hurdat_atl AL031894 18.60 -52.10 HU 70 1 18.60 -52.10 TS 40 14 301
1894 NA NA 15:00:00 TS 18.95 -52.71 1279 1267 P____________P AL031894 18.95 -52.71 HU 72 1 18.95 -52.71 TS 40 13 302
1894 NA NA 18:00:00 TS 19.30 -53.30 75 hurdat_atl 1268 1237 O____________O hurdat_atl AL031894 19.30 -53.30 HU 75 1 19.30 -53.30 TS 40 13 302
1894 NA NA 21:00:00 TS 19.65 -53.92 1237 1179 P____________P AL031894 19.65 -53.92 HU 75 1 19.65 -53.92 TS 42 13 302
1894 NA NA 1894-09-03 00:00:00 TS 20.00 -54.50 75 hurdat_atl 1179 1131 O____________O hurdat_atl AL031894 20.00 -54.50 HU 75 1 20.00 -54.50 TS 45 13 304
1894 NA NA 03:00:00 TS 20.35 -55.02 1131 1088 P____________P AL031894 20.35 -55.02 HU 77 1 20.35 -55.02 TS 45 12 307
1894 NA NA 06:00:00 TS 20.70 -55.50 80 hurdat_atl 1088 1056 O____________O hurdat_atl AL031894 20.70 -55.50 HU 80 1 20.70 -55.50 TS 45 11 308
1894 NA NA 09:00:00 TS 21.05 -55.97 1045 1018 P____________P AL031894 21.05 -55.97 HU 80 1 21.05 -55.97 TS 45 11 310
1894 NA NA 12:00:00 TS 21.40 -56.40 80 hurdat_atl 1018 990 O____________O hurdat_atl AL031894 21.40 -56.40 HU 80 1 21.40 -56.40 TS 45 10 313
1894 NA NA 15:00:00 TS 21.76 -56.78 994 973 P____________P AL031894 21.76 -56.78 HU 82 1 21.76 -56.78 TS 45 10 317
1894 NA NA 18:00:00 TS 22.10 -57.10 85 hurdat_atl 978 964 O____________O hurdat_atl AL031894 22.10 -57.10 HU 85 2 22.10 -57.10 TS 45 8 319
1894 NA NA 21:00:00 TS 22.40 -57.37 964 956 P____________P AL031894 22.40 -57.37 HU 85 2 22.40 -57.37 TS 47 8 322
1894 NA NA 1894-09-04 00:00:00 TS 22.70 -57.60 85 hurdat_atl 961 957 O____________O hurdat_atl AL031894 22.70 -57.60 HU 85 2 22.70 -57.60 TS 50 8 328
1894 NA NA 03:00:00 TS 23.05 -57.81 960 957 P____________P AL031894 23.05 -57.81 HU 85 2 23.05 -57.81 TS 52 8 332
1894 NA NA 06:00:00 TS 23.40 -58.00 85 hurdat_atl 966 962 O____________O hurdat_atl AL031894 23.40 -58.00 HU 85 2 23.40 -58.00 TS 55 7 331
1894 NA NA 09:00:00 TS 23.69 -58.20 969 966 P____________P AL031894 23.70 -58.20 HU 85 2 23.68 -58.19 TS 57 7 329
1894 NA NA 12:00:00 TS 24.00 -58.40 85 hurdat_atl 973 972 O____________O hurdat_atl AL031894 24.00 -58.40 HU 85 2 24.00 -58.40 TS 60 8 330
1894 NA NA 15:00:00 TS 24.38 -58.63 987 979 P____________P AL031894 24.34 -58.60 HU 85 2 24.47 -58.68 TS 60 9 332
1894 NA NA 18:00:00 TS 24.80 -58.87 85 hurdat_atl 995 995 O____________O hurdat_atl AL031894 24.70 -58.80 HU 85 2 25.00 -59.00 TS 60 9 332
1894 NA NA 21:00:00 TS 25.20 -59.11 1013 1013 P____________P AL031894 25.05 -59.01 HU 85 2 25.50 -59.30 TS 62 9 332
1894 NA NA 1894-09-05 00:00:00 TS 25.60 -59.33 85 hurdat_atl 1033 1027 O____________O hurdat_atl AL031894 25.40 -59.20 HU 85 2 26.00 -59.60 HU 65 9 334
1894 NA NA 03:00:00 TS 26.00 -59.54 1055 1049 P____________P AL031894 25.75 -59.37 HU 85 2 26.50 -59.90 HU 67 9 336
1894 NA NA 06:00:00 TS 26.40 -59.73 85 hurdat_atl 1080 1074 O____________O hurdat_atl AL031894 26.10 -59.50 HU 85 2 27.00 -60.20 HU 70 9 337
1894 NA NA 09:00:00 TS 26.80 -59.93 1105 1105 P____________P AL031894 26.44 -59.62 HU 85 2 27.52 -60.54 HU 72 9 339
1894 NA NA 12:00:00 TS 27.20 -60.07 85 hurdat_atl 1133 1133 O____________O hurdat_atl AL031894 26.80 -59.70 HU 85 2 28.00 -60.80 HU 75 8 349
1894 NA NA 15:00:00 TS 27.60 -60.11 1171 1171 P____________P AL031894 27.19 -59.73 HU 85 2 28.42 -60.88 HU 77 8 1
1894 NA NA 18:00:00 TS 28.00 -60.07 85 hurdat_atl 1210 1210 O____________O hurdat_atl AL031894 27.60 -59.70 HU 85 2 28.80 -60.80 HU 80 8 11
1894 NA NA 21:00:00 TS 28.38 -59.94 1259 1259 P____________P AL031894 27.99 -59.62 HU 87 2 29.16 -60.59 HU 82 8 19
1894 NA NA 1894-09-06 00:00:00 TS 28.77 -59.77 90 hurdat_atl 1303 1303 O____________O hurdat_atl AL031894 28.40 -59.50 HU 90 2 29.50 -60.30 HU 85 9 21
1894 NA NA 03:00:00 TS 29.18 -59.60 1351 1351 P____________P AL031894 28.85 -59.36 HU 92 2 29.85 -60.07 HU 87 9 21
1894 NA NA 06:00:00 TS 29.60 -59.40 95 hurdat_atl 1400 1400 O____________O hurdat_atl AL031894 29.30 -59.20 HU 95 2 30.20 -59.80 HU 90 9 25
1894 NA NA 09:00:00 TS 29.99 -59.17 1448 1448 P____________P AL031894 29.71 -59.01 HU 97 3 30.55 -59.47 HU 92 9 31
1894 NA NA 12:00:00 TS 30.37 -58.87 100 hurdat_atl 1501 1501 O____________O hurdat_atl AL031894 30.10 -58.80 HU 100 3 30.90 -59.00 HU 95 10 38
1894 NA NA 15:00:00 TS 30.75 -58.49 1546 1518 P____________P AL031894 30.49 -58.56 HU 100 3 31.26 -58.34 HU 97 10 42
1894 NA NA 18:00:00 TS 31.13 -58.07 100 hurdat_atl 1518 1492 O____________O hurdat_atl AL031894 30.90 -58.30 HU 100 3 31.60 -57.60 MH 100 11 42
1894 NA NA 21:00:00 TS 31.53 -57.66 1492 1468 P____________P AL031894 31.34 -58.02 HU 100 3 31.90 -56.95 MH 100 11 42
1894 NA NA 1894-09-07 00:00:00 TS 31.93 -57.23 100 hurdat_atl 1472 1445 O____________O hurdat_atl AL031894 31.80 -57.70 HU 100 3 32.20 -56.30 MH 100 11 43
1894 NA NA 03:00:00 TS 32.35 -56.75 1454 1429 P____________P AL031894 32.25 -57.32 HU 100 3 32.55 -55.60 MH 100 12 45
1894 NA NA 06:00:00 TS 32.77 -56.23 100 hurdat_atl 1429 1415 O____________O hurdat_atl AL031894 32.70 -56.90 HU 100 3 32.90 -54.90 MH 100 11 47
1894 NA NA 09:00:00 TS 33.14 -55.76 1420 1390 P____________P AL031894 33.13 -56.47 HU 100 3 33.15 -54.34 MH 100 11 43
1894 NA NA 12:00:00 TS 33.57 -55.35 100 hurdat_atl 1382 1342 O____________O hurdat_atl AL031894 33.60 -56.00 HU 100 3 33.50 -53.60 MH 100 12 37
1894 NA NA 15:00:00 TS 34.11 -54.87 1342 1295 P____________P AL031894 34.10 -55.49 HU 100 3 34.11 -52.41 MH 100 14 32
1894 NA NA 18:00:00 TS 34.72 -54.47 100 hurdat_atl 1295 1235 O____________O hurdat_atl AL031894 34.70 -54.90 HU 100 3 34.90 -51.00 MH 100 14 23
1894 NA NA 21:00:00 TS 35.40 -54.20 1235 1156 P____________P AL031894 35.40 -54.20 HU 100 3 35.66 -49.72 MH 17 30
1894 NA NA 1894-09-08 00:00:00 TS 36.20 -53.40 100 948 hurdat_atl 1156 1068 O____________P hurdat_atl AL031894 36.20 -53.40 HU 100 948 3 36.48 -48.47 MH 21 39
1894 NA NA 03:00:00 TS 37.06 -52.54 1058 975 P____________P AL031894 37.06 -52.54 HU 100 3 37.36 -47.25 MH 23 39
1894 NA NA 06:00:00 TS 38.00 -51.60 100 hurdat_atl 965 879 O____________P hurdat_atl AL031894 38.00 -51.60 HU 100 3 38.31 -46.05 MH 24 38
1894 NA NA 09:00:00 TS 38.96 -50.63 871 796 P____________P AL031894 38.96 -50.63 HU 100 3 39.33 -44.89 MH 25 38
1894 NA NA 12:00:00 TS 40.00 -49.60 100 hurdat_atl 788 722 O____________P hurdat_atl AL031894 40.00 -49.60 HU 100 3 40.43 -43.76 MH 27 37
1894 NA NA 15:00:00 TS 41.10 -48.50 717 670 P____________P AL031894 41.10 -48.50 HU 95 2 41.61 -42.66 MH 29 37
1894 NA NA 18:00:00 TS 42.30 -47.30 90 hurdat_atl 667 651 O____________P hurdat_atl AL031894 42.30 -47.30 HU 90 2 42.87 -41.59 MH 31 37
1894 NA NA 21:00:00 TS 43.60 -45.95 651 651 P____________P AL031894 43.60 -45.95 HU 85 2 44.22 -40.55 MH 34 37
1894 NA NA 1894-09-09 00:00:00 TS 45.00 -44.50 80 hurdat_atl 679 679 O____________P hurdat_atl AL031894 45.00 -44.50 HU 80 1 45.68 -39.54 MH 38 40
1894 NA NA 03:00:00 TS 46.52 -42.49 770 770 P____________P AL031894 46.45 -42.99 HU 77 1 47.23 -38.55 MH 41 40
1894 NA NA 06:00:00 TS 48.18 -40.64 75 hurdat_atl 893 893 O____________O hurdat_atl AL031894 48.00 -41.40 HU 75 1 48.90 -37.60 HU 75 42 35
1894 NA NA 09:00:00 TS 49.98 -38.84 1035 1007 P____________P AL031894 49.67 -39.65 HU 72 1 50.76 -36.71 HU 72 41 32
1894 NA NA 12:00:00 TS 51.70 -37.23 70 hurdat_atl 998 893 O____________O hurdat_atl AL031894 51.30 -38.00 HU 70 1 52.50 -35.70 HU 70 36 30
1894 NA NA 15:00:00 TS 53.11 -35.97 886 807 P____________P AL031894 52.72 -36.73 HU 70 1 53.91 -34.44 HU 70 30 29
1894 NA NA 18:00:00 MX 54.37 -34.80 70 hurdat_atl 801 O____________O hurdat_atl AL031894 54.00 -35.70 EX 70 -4 55.10 -33.00 HU 70 29 29